Time,TemperatureF,DewpointF,PressureIn,WindDirection,WindDirectionDegrees,WindSpeedMPH,WindSpeedGustMPH,Humidity,HourlyPrecipIn,Conditions,Clouds,dailyrainin,SoftwareType,DateUTC
2013-05-17 00:21:00,52.0,50.0,29.99,SW,227,10.0,-999.0,93,-99.99,,,-99.99,,2013-05-17 07:21:00,
2013-05-17 00:32:00,52.0,50.0,29.99,SW,227,10.0,-999.0,93,-99.99,,,-99.99,,2013-05-17 07:32:00,
2013-05-17 00:43:00,52.0,50.0,29.99,SW,227,10.0,-999.0,93,-99.99,,,-99.99,,2013-05-17 07:43:00,
2013-05-17 00:53:00,52.0,50.0,29.99,SW,227,10.0,-999.0,93,-99.99,,,-99.99,,2013-05-17 07:53:00,
2013-05-17 01:02:00,52.0,50.0,29.99,SW,227,10.0,-999.0,93,-99.99,,,-99.99,,2013-05-17 08:02:00,
2013-05-17 02:23:00,51.0,49.0,29.98,SW,233,9.0,-999.0,93,-99.99,,,-99.99,,2013-05-17 09:23:00,
2013-05-17 02:33:00,51.0,49.0,29.98,SW,233,9.0,-999.0,93,-99.99,,,-99.99,,2013-05-17 09:33:00,
2013-05-17 02:42:00,51.0,49.0,29.98,SW,233,9.0,-999.0,93,-99.99,,,-99.99,,2013-05-17 09:42:00,
2013-05-17 02:53:00,51.0,49.0,29.98,SW,233,9.0,-999.0,93,-99.99,,,-99.99,,2013-05-17 09:53:00,
2013-05-17 03:03:00,51.0,49.0,29.98,SW,233,9.0,-999.0,93,-99.99,,,-99.99,,2013-05-17 10:03:00,
2013-05-17 04:23:00,51.0,49.0,29.98,WSW,244,7.0,-999.0,93,-99.99,,,-99.99,,2013-05-17 11:23:00,
2013-05-17 04:34:00,51.0,49.0,29.98,WSW,244,7.0,-999.0,93,-99.99,,,-99.99,,2013-05-17 11:34:00,
2013-05-17 04:42:00,51.0,49.0,29.98,WSW,244,7.0,-999.0,93,-99.99,,,-99.99,,2013-05-17 11:42:00,
2013-05-17 04:53:00,51.0,49.0,29.98,WSW,244,7.0,-999.0,93,-99.99,,,-99.99,,2013-05-17 11:53:00,
2013-05-17 05:02:00,51.0,49.0,29.98,WSW,244,7.0,-999.0,93,-99.99,,,-99.99,,2013-05-17 12:02:00,
2013-05-17 06:23:00,50.0,48.0,29.97,WSW,237,13.0,-999.0,93,-99.99,,,-99.99,,2013-05-17 13:23:00,
2013-05-17 06:33:00,50.0,48.0,29.97,WSW,237,13.0,-999.0,93,-99.99,,,-99.99,,2013-05-17 13:33:00,
2013-05-17 06:42:00,50.0,48.0,29.97,WSW,237,13.0,-999.0,93,-99.99,,,-99.99,,2013-05-17 13:42:00,
2013-05-17 06:52:00,50.0,48.0,29.97,WSW,237,13.0,-999.0,93,-99.99,,,-99.99,,2013-05-17 13:52:00,
2013-05-17 07:01:00,50.0,48.0,29.97,WSW,237,13.0,-999.0,93,-99.99,,,-99.99,,2013-05-17 14:01:00,
2013-05-17 08:04:00,51.0,48.0,30.00,West,259,17.0,-999.0,91,-99.99,,,-99.99,,2013-05-17 15:04:00,
2013-05-17 08:25:00,51.0,48.0,30.00,West,259,17.0,-999.0,91,-99.99,,,-99.99,,2013-05-17 15:25:00,
2013-05-17 08:37:00,51.0,48.0,30.00,West,259,17.0,-999.0,91,-99.99,,,-99.99,,2013-05-17 15:37:00,
2013-05-17 08:47:00,51.0,48.0,30.00,West,259,17.0,-999.0,91,-99.99,,,-99.99,,2013-05-17 15:47:00,
2013-05-17 08:57:00,51.0,48.0,30.00,West,259,17.0,-999.0,91,-99.99,,,-99.99,,2013-05-17 15:57:00,
2013-05-17 10:04:00,53.0,50.0,30.01,WSW,248,14.0,-999.0,88,-99.99,,,-99.99,,2013-05-17 17:04:00,
2013-05-17 10:30:00,53.0,50.0,30.01,WSW,248,14.0,-999.0,88,-99.99,,,-99.99,,2013-05-17 17:30:00,
2013-05-17 10:40:00,53.0,-99.9,30.01,WSW,248,14.0,-999.0,88,-99.99,,,-99.99,,2013-05-17 17:40:00,
2013-05-17 10:49:00,53.0,50.0,30.01,WSW,248,14.0,-999.0,88,-99.99,,,-99.99,,2013-05-17 17:49:00,
2013-05-17 11:00:00,53.0,50.0,30.01,WSW,248,14.0,-999.0,88,-99.99,,,-99.99,,2013-05-17 18:00:00,
2013-05-17 12:04:00,56.0,51.0,30.04,SSE,167,9.0,-999.0,84,-99.99,,,-99.99,,2013-05-17 19:04:00,
2013-05-17 12:30:00,56.0,51.0,30.04,SSE,167,9.0,-999.0,84,-99.99,,,-99.99,,2013-05-17 19:30:00,
2013-05-17 12:40:00,56.0,51.0,30.04,SSE,167,9.0,-999.0,84,-99.99,,,-99.99,,2013-05-17 19:40:00,
2013-05-17 12:51:00,56.0,51.0,30.04,SSE,167,9.0,-999.0,84,-99.99,,,-99.99,,2013-05-17 19:51:00,
2013-05-17 13:00:00,56.0,-99.9,30.04,SSE,167,9.0,-999.0,84,-99.99,,,-99.99,,2013-05-17 20:00:00,
2013-05-17 14:04:00,56.0,51.0,30.04,SW,232,14.0,-999.0,83,-99.99,,,-99.99,,2013-05-17 21:04:00,
2013-05-17 14:26:00,56.0,51.0,30.04,SW,232,14.0,-999.0,83,-99.99,,,-99.99,,2013-05-17 21:26:00,
2013-05-17 14:39:00,56.0,51.0,30.04,SW,232,14.0,-999.0,83,-99.99,,,-99.99,,2013-05-17 21:39:00,
2013-05-17 14:49:00,56.0,51.0,30.04,SW,232,14.0,-999.0,83,-99.99,,,-99.99,,2013-05-17 21:49:00,
2013-05-17 14:58:00,56.0,51.0,30.04,SW,232,14.0,-999.0,83,-99.99,,,-99.99,,2013-05-17 21:58:00,
2013-05-17 16:23:00,56.0,50.0,30.04,SW,215,21.0,-999.0,81,-99.99,,,-99.99,,2013-05-17 23:23:00,
2013-05-17 16:38:00,56.0,50.0,30.04,SW,215,21.0,-999.0,81,-99.99,,,-99.99,,2013-05-17 23:38:00,
2013-05-17 16:47:00,56.0,50.0,30.04,SW,215,21.0,-999.0,81,-99.99,,,-99.99,,2013-05-17 23:47:00,
2013-05-17 16:54:00,56.0,50.0,30.04,SW,215,21.0,-999.0,81,-99.99,,,-99.99,,2013-05-17 23:54:00,
2013-05-17 17:02:00,56.0,50.0,30.04,SW,215,21.0,-999.0,81,-99.99,,,-99.99,,2013-05-18 00:02:00,
2013-05-17 18:24:00,55.0,49.0,30.03,West,261,19.0,-999.0,80,-99.99,,,-99.99,,2013-05-18 01:24:00,
2013-05-17 18:32:00,55.0,49.0,30.03,West,261,19.0,-999.0,80,-99.99,,,-99.99,,2013-05-18 01:32:00,
2013-05-17 18:43:00,55.0,49.0,30.03,West,261,19.0,-999.0,80,-99.99,,,-99.99,,2013-05-18 01:43:00,
2013-05-17 18:52:00,55.0,49.0,30.03,West,261,19.0,-999.0,80,-99.99,,,-99.99,,2013-05-18 01:52:00,
2013-05-17 19:02:00,55.0,49.0,30.03,West,261,19.0,-999.0,80,-99.99,,,-99.99,,2013-05-18 02:02:00,
2013-05-17 20:23:00,52.0,48.0,30.04,SW,219,18.0,-999.0,87,-99.99,,,-99.99,,2013-05-18 03:23:00,
2013-05-17 20:33:00,52.0,48.0,30.04,SW,219,18.0,-999.0,87,-99.99,,,-99.99,,2013-05-18 03:33:00,
2013-05-17 20:43:00,52.0,48.0,30.04,SW,219,18.0,-999.0,87,-99.99,,,-99.99,,2013-05-18 03:43:00,
2013-05-17 20:53:00,52.0,48.0,30.04,SW,219,18.0,-999.0,87,-99.99,,,-99.99,,2013-05-18 03:53:00,
2013-05-17 21:02:00,52.0,48.0,30.04,SW,219,18.0,-999.0,87,-99.99,,,-99.99,,2013-05-18 04:02:00,
2013-05-17 22:22:00,51.0,48.0,30.06,WSW,257,20.0,-999.0,90,-99.99,,,-99.99,,2013-05-18 05:22:00,
2013-05-17 22:32:00,51.0,48.0,30.06,WSW,257,20.0,-999.0,90,-99.99,,,-99.99,,2013-05-18 05:32:00,
2013-05-17 22:42:00,51.0,48.0,30.06,WSW,257,20.0,-999.0,90,-99.99,,,-99.99,,2013-05-18 05:42:00,
2013-05-17 22:52:00,51.0,48.0,30.06,WSW,257,20.0,-999.0,90,-99.99,,,-99.99,,2013-05-18 05:52:00,
2013-05-17 23:01:00,51.0,48.0,30.06,WSW,257,20.0,-999.0,90,-99.99,,,-99.99,,2013-05-18 06:01:00,